Time;durP1;ratioP1;P1;durP2;ratioP2;P2;SDS_P1;SDS_P2;PMS_P1;PMS_P2;Temp;Humidity;BMP_temperature;BMP_pressure;BME280_temperature;BME280_humidity;BME280_pressure;Samples;Min_cycle;Max_cycle;Signal;HPM_P1;HPM_P2
2022/03/24 00:01:48;;;;;;;11.20;8.73;;;;;;;12.68;47.01;101912.69;5074101;28;20162;-89
2022/03/24 00:04:13;;;;;;;13.00;8.10;;;;;;;12.55;47.08;101923.00;5074165;28;20025;-89
2022/03/24 00:06:39;;;;;;;14.77;8.43;;;;;;;12.45;47.23;101913.88;5073935;28;20549;-89
2022/03/24 00:09:04;;;;;;;12.98;8.75;;;;;;;12.44;47.45;101915.69;5073691;28;20032;-89
2022/03/24 00:11:30;;;;;;;12.43;8.32;;;;;;;12.42;47.64;101914.91;5073550;28;20020;-89
2022/03/24 00:13:56;;;;;;;12.88;8.02;;;;;;;12.38;47.78;101916.00;5073805;28;20020;-88
2022/03/24 00:16:21;;;;;;;10.50;7.68;;;;;;;12.26;48.46;101920.09;5073715;28;20021;-88
2022/03/24 00:18:47;;;;;;;12.02;8.10;;;;;;;12.33;48.71;101912.72;5073850;28;20036;-89
2022/03/24 00:21:12;;;;;;;13.55;8.65;;;;;;;12.35;48.20;101915.28;5073370;28;20028;-89
2022/03/24 00:23:38;;;;;;;12.10;8.73;;;;;;;12.26;48.23;101906.06;5072172;28;20028;-88
2022/03/24 00:26:03;;;;;;;10.73;8.10;;;;;;;12.20;47.69;101909.84;5073358;28;20036;-89
2022/03/24 00:28:31;;;;;;;14.75;8.32;;;;;;;12.20;47.37;101901.94;5073474;28;20028;-89
2022/03/24 00:30:56;;;;;;;11.88;8.13;;;;;;;11.88;48.15;101912.28;5073298;28;20020;-89
2022/03/24 00:33:22;;;;;;;11.32;8.50;;;;;;;11.74;49.03;101909.50;5073323;28;20103;-89
2022/03/24 00:35:48;;;;;;;11.20;7.30;;;;;;;11.69;49.61;101903.63;5073336;28;20024;-89
2022/03/24 00:38:13;;;;;;;12.45;8.27;;;;;;;12.09;48.97;101909.56;5073344;28;20028;-89
2022/03/24 00:40:39;;;;;;;11.45;8.15;;;;;;;12.09;48.74;101904.31;5072775;28;20120;-89
2022/03/24 00:43:05;;;;;;;12.57;7.90;;;;;;;12.03;48.65;101896.72;5073261;28;20056;-89
2022/03/24 00:45:30;;;;;;;12.13;7.95;;;;;;;12.07;49.06;101903.53;5071736;28;20528;-89
2022/03/24 00:47:56;;;;;;;12.02;7.68;;;;;;;12.02;49.08;101900.25;5073046;28;20128;-90
2022/03/24 00:50:21;;;;;;;11.15;7.93;;;;;;;12.12;49.07;101903.28;5073010;28;20031;-89
2022/03/24 00:52:46;;;;;;;11.65;8.07;;;;;;;12.09;49.10;101901.66;5073013;28;20078;-89
2022/03/24 00:55:18;;;;;;;12.35;7.90;;;;;;;12.14;49.04;101906.69;5071798;28;20463;-89
2022/03/24 00:57:45;;;;;;;11.95;7.90;;;;;;;12.01;49.01;101888.03;5072821;28;20029;-89
2022/03/24 01:00:15;;;;;;;11.45;8.20;;;;;;;11.96;49.31;101890.88;5072556;28;20028;-89
2022/03/24 01:02:45;;;;;;;12.27;8.40;;;;;;;11.90;49.39;101886.78;5071823;28;20427;-89
2022/03/24 01:05:13;;;;;;;14.65;8.38;;;;;;;11.84;49.41;101894.94;5072633;28;20017;-89
2022/03/24 01:07:39;;;;;;;12.25;8.85;;;;;;;11.86;49.54;101892.25;5072451;28;20025;-89
2022/03/24 01:10:06;;;;;;;12.30;8.13;;;;;;;11.86;49.38;101889.63;5072488;28;20031;-89
2022/03/24 01:12:32;;;;;;;14.52;9.15;;;;;;;11.88;48.86;101890.41;5072474;28;20028;-89
2022/03/24 01:14:58;;;;;;;10.32;8.18;;;;;;;11.85;48.57;101894.03;5072222;28;20037;-89
2022/03/24 01:17:26;;;;;;;11.43;7.93;;;;;;;11.81;48.50;101889.84;5072468;28;20029;-89
2022/03/24 01:19:52;;;;;;;14.73;8.70;;;;;;;11.80;48.45;101889.94;5072428;28;20032;-89
2022/03/24 01:22:18;;;;;;;12.65;8.55;;;;;;;11.84;48.60;101886.22;5072497;28;20505;-89
2022/03/24 01:24:45;;;;;;;9.75;7.18;;;;;;;11.85;48.79;101890.56;5072888;28;20029;-89
2022/03/24 01:27:11;;;;;;;9.95;7.82;;;;;;;11.81;49.01;101879.34;5073148;28;20525;-88
2022/03/24 01:29:36;;;;;;;10.18;7.95;;;;;;;11.85;49.07;101886.16;5072233;28;20154;-89
2022/03/24 01:32:03;;;;;;;11.48;7.82;;;;;;;11.84;49.25;101887.06;5071837;28;20478;-89
2022/03/24 01:34:29;;;;;;;12.73;8.05;;;;;;;11.71;49.41;101881.56;5071291;28;20104;-90
2022/03/24 01:36:55;;;;;;;11.63;8.63;;;;;;;11.73;48.77;101876.22;5072840;28;20024;-89
2022/03/24 01:39:22;;;;;;;11.82;8.07;;;;;;;11.67;49.44;101871.25;5072804;28;20031;-90
2022/03/24 01:41:48;;;;;;;12.27;8.27;;;;;;;11.63;48.89;101874.94;5072520;28;20033;-89
2022/03/24 01:44:16;;;;;;;9.05;7.45;;;;;;;11.66;48.76;101872.19;5072582;28;20024;-89
2022/03/24 01:46:57;;;;;;;12.38;7.88;;;;;;;11.74;48.61;101867.41;5072427;28;20038;-89
2022/03/24 01:49:24;;;;;;;11.07;8.60;;;;;;;11.65;48.73;101863.44;5072154;28;20047;-89
2022/03/24 01:51:49;;;;;;;10.20;7.78;;;;;;;11.60;49.39;101856.72;5071808;28;20028;-89
2022/03/24 01:54:18;;;;;;;11.65;8.00;;;;;;;11.62;49.05;101857.47;5072775;28;20493;-89
2022/03/24 01:56:44;;;;;;;10.50;7.88;;;;;;;11.53;49.30;101856.13;5071299;28;20025;-89
2022/03/24 01:59:13;;;;;;;11.73;7.90;;;;;;;11.38;49.85;101849.84;5070973;28;20516;-89
2022/03/24 02:01:38;;;;;;;10.63;7.45;;;;;;;11.48;49.50;101856.38;5071734;28;20379;-89
2022/03/24 02:04:04;;;;;;;11.43;8.38;;;;;;;11.51;49.63;101850.09;5070808;28;20475;-89
2022/03/24 02:06:31;;;;;;;11.90;8.75;;;;;;;11.49;48.97;101851.94;5071730;28;20025;-89
2022/03/24 02:08:58;;;;;;;12.52;8.15;;;;;;;11.42;49.22;101853.19;5070664;28;20108;-89
2022/03/24 02:11:23;;;;;;;13.80;8.48;;;;;;;11.38;48.98;101841.97;5071843;28;20051;-89
2022/03/24 02:13:49;;;;;;;11.18;7.78;;;;;;;11.44;48.60;101848.72;5071822;28;20025;-89
2022/03/24 02:16:15;;;;;;;10.60;8.00;;;;;;;11.44;48.91;101849.56;5071707;28;20027;-89
2022/03/24 02:18:40;;;;;;;13.05;9.27;;;;;;;11.41;48.96;101844.44;5071828;28;20098;-89
2022/03/24 02:21:06;;;;;;;12.93;8.50;;;;;;;11.42;49.33;101846.16;5071729;28;20474;-89
2022/03/24 02:23:32;;;;;;;11.35;8.73;;;;;;;11.43;49.51;101845.25;5071713;28;20470;-89
2022/03/24 02:25:58;;;;;;;12.65;9.30;;;;;;;11.43;49.46;101852.25;5071979;28;20029;-89
2022/03/24 02:28:23;;;;;;;15.23;9.75;;;;;;;11.30;49.68;101855.47;5071915;28;20060;-88
2022/03/24 02:30:50;;;;;;;12.60;8.65;;;;;;;11.24;49.96;101861.03;5071349;28;20108;-88
2022/03/24 02:33:20;;;;;;;11.20;8.63;;;;;;;11.26;50.44;101850.44;5071919;28;20233;-89
2022/03/24 02:35:46;;;;;;;10.68;8.48;;;;;;;10.98;51.03;101850.88;5071732;28;20059;-89
2022/03/24 02:38:11;;;;;;;12.75;8.57;;;;;;;10.85;51.18;101855.88;5071765;28;20482;-89
2022/03/24 02:40:36;;;;;;;11.25;8.88;;;;;;;10.93;50.82;101852.88;5070384;28;20032;-88
2022/03/24 02:43:02;;;;;;;15.55;10.13;;;;;;;10.94;50.93;101858.06;5071848;28;20113;-89
2022/03/24 02:45:27;;;;;;;14.45;8.95;;;;;;;10.97;50.89;101851.81;5070518;28;20503;-89
2022/03/24 02:47:52;;;;;;;12.90;8.60;;;;;;;10.94;51.12;101855.44;5071516;28;20033;-89
2022/03/24 02:50:18;;;;;;;13.15;9.70;;;;;;;10.95;51.03;101856.28;5069921;28;20035;-89
2022/03/24 02:52:43;;;;;;;13.05;9.70;;;;;;;10.66;51.49;101856.72;5071260;28;20055;-89
2022/03/24 02:55:09;;;;;;;10.88;9.07;;;;;;;10.35;51.61;101851.09;5071565;28;20048;-88
2022/03/24 02:57:35;;;;;;;13.73;9.13;;;;;;;10.22;51.31;101856.00;5071583;28;20024;-89
2022/03/24 03:00:00;;;;;;;12.60;8.45;;;;;;;10.13;51.73;101849.41;5071401;28;20028;-89
2022/03/24 03:02:26;;;;;;;10.57;7.68;;;;;;;10.15;51.30;101850.19;5071644;28;20033;-89
2022/03/24 03:04:53;;;;;;;13.75;8.68;;;;;;;10.15;51.77;101852.81;5075322;28;20078;-88
2022/03/24 03:07:20;;;;;;;13.27;8.68;;;;;;;10.10;52.24;101846.88;5075294;28;20040;-89
2022/03/24 03:09:46;;;;;;;15.32;8.57;;;;;;;10.10;52.39;101852.97;5074808;28;20032;-89
2022/03/24 03:12:11;;;;;;;11.93;8.45;;;;;;;9.96;52.72;101849.25;5074862;28;20101;-89
2022/03/24 03:14:38;;;;;;;14.27;8.55;;;;;;;10.07;51.43;101847.88;5074835;28;20032;-89
2022/03/24 03:17:04;;;;;;;17.52;10.10;;;;;;;10.17;51.47;101848.34;5075009;28;20021;-89
2022/03/24 03:19:30;;;;;;;12.57;8.82;;;;;;;9.90;52.08;101845.13;5074801;28;20020;-89
2022/03/24 03:21:56;;;;;;;17.10;10.98;;;;;;;9.86;51.82;101860.13;5074884;28;20043;-89
2022/03/24 03:24:22;;;;;;;10.10;8.00;;;;;;;9.89;52.25;101854.75;5074548;28;20059;-89
2022/03/24 03:26:48;;;;;;;14.10;8.50;;;;;;;9.91;52.47;101850.31;5074409;28;20024;-89
2022/03/24 03:29:14;;;;;;;14.85;8.57;;;;;;;9.92;52.06;101849.38;5074524;28;20478;-89
2022/03/24 03:31:40;;;;;;;11.32;8.55;;;;;;;9.89;52.17;101853.88;5074772;28;20055;-89
2022/03/24 03:34:09;;;;;;;11.70;8.30;;;;;;;9.94;52.75;101846.69;5074524;28;20363;-89
2022/03/24 03:36:35;;;;;;;13.57;8.88;;;;;;;9.91;51.97;101857.28;5074892;28;20031;-89
2022/03/24 03:39:02;;;;;;;13.80;8.55;;;;;;;9.85;52.64;101844.44;5074742;28;20471;-88
2022/03/24 03:41:28;;;;;;;13.10;8.93;;;;;;;9.82;52.29;101850.69;5074731;28;20440;-90
2022/03/24 03:43:55;;;;;;;12.50;9.02;;;;;;;9.82;52.98;101845.44;5074401;28;20059;-90
2022/03/24 03:46:21;;;;;;;11.55;9.48;;;;;;;9.82;52.46;101845.44;5073105;28;20028;-95
2022/03/24 03:48:47;;;;;;;12.52;9.20;;;;;;;9.68;52.24;101834.66;5075004;28;20036;-92
2022/03/24 03:51:12;;;;;;;14.80;9.43;;;;;;;9.63;52.35;101831.38;5073783;28;20024;-92
2022/03/24 03:53:38;;;;;;;12.65;9.63;;;;;;;9.63;52.63;101841.88;5074055;28;20421;-92
2022/03/24 03:56:05;;;;;;;14.48;10.15;;;;;;;9.65;52.43;101830.38;5073563;28;20020;-92
2022/03/24 03:58:31;;;;;;;13.85;9.35;;;;;;;9.66;52.68;101834.72;5074448;28;20033;-91
2022/03/24 04:00:56;;;;;;;13.52;9.40;;;;;;;9.64;52.82;101838.34;5074183;28;20064;-92
2022/03/24 04:03:26;;;;;;;16.75;10.15;;;;;;;9.69;53.64;101841.59;5074602;28;20049;-92
2022/03/24 04:05:56;;;;;;;12.88;9.30;;;;;;;9.64;53.71;101846.22;5074799;28;20029;-91
2022/03/24 04:08:22;;;;;;;13.50;9.32;;;;;;;9.51;53.42;101837.97;5079346;28;20040;-92
2022/03/24 04:10:52;;;;;;;13.02;9.27;;;;;;;9.55;53.83;101846.56;5091640;28;20051;-90
2022/03/24 04:13:18;;;;;;;14.43;9.75;;;;;;;9.45;53.88;101846.94;5096045;28;20028;-90
2022/03/24 04:15:45;;;;;;;14.07;9.98;;;;;;;9.41;53.36;101845.34;5080987;28;20467;-91
2022/03/24 04:18:11;;;;;;;17.40;9.88;;;;;;;9.31;53.03;101846.63;5074401;28;20108;-91
2022/03/24 04:20:36;;;;;;;15.05;10.82;;;;;;;9.28;52.79;101844.13;5074314;28;20111;-91
2022/03/24 04:23:04;;;;;;;15.25;10.40;;;;;;;9.26;53.52;101848.56;5073965;28;20055;-91
2022/03/24 04:25:30;;;;;;;14.57;10.70;;;;;;;9.23;53.04;101835.59;5072243;28;20033;-91
2022/03/24 04:27:55;;;;;;;14.35;10.70;;;;;;;9.28;53.55;101846.75;5073498;28;20474;-92
2022/03/24 04:30:21;;;;;;;14.73;10.65;;;;;;;9.31;53.24;101842.25;5073805;28;20054;-92
2022/03/24 04:32:49;;;;;;;18.27;11.35;;;;;;;9.36;53.73;101839.47;5073798;28;20504;-92
2022/03/24 04:35:16;;;;;;;14.55;10.73;;;;;;;9.48;54.00;101849.44;5072347;28;20115;-91
2022/03/24 04:37:43;;;;;;;14.52;10.65;;;;;;;9.49;53.54;101845.88;5073255;28;20466;-92
2022/03/24 04:40:13;;;;;;;14.65;10.80;;;;;;;9.35;53.84;101845.59;5073214;28;20031;-92
2022/03/24 04:42:39;;;;;;;18.10;11.52;;;;;;;9.30;54.55;101852.78;5073286;28;20024;-91
2022/03/24 04:45:06;;;;;;;14.95;10.93;;;;;;;9.29;54.60;101840.59;5073636;28;20115;-92
2022/03/24 04:47:32;;;;;;;15.70;10.15;;;;;;;9.23;54.74;101844.31;5064546;28;20016;-92
2022/03/24 04:49:57;;;;;;;14.98;10.63;;;;;;;9.21;54.55;101850.53;5068315;28;20041;-91
2022/03/24 04:52:23;;;;;;;15.48;10.70;;;;;;;9.17;54.81;101844.56;5071718;28;20032;-91
2022/03/24 04:54:49;;;;;;;16.77;11.73;;;;;;;9.23;54.81;101851.34;5072262;28;20075;-91
2022/03/24 04:57:14;;;;;;;16.83;11.20;;;;;;;9.19;54.86;101850.59;5072704;28;20028;-91
2022/03/24 04:59:40;;;;;;;16.73;10.32;;;;;;;9.08;55.44;101848.41;5071581;28;20066;-90
2022/03/24 05:02:08;;;;;;;16.15;10.88;;;;;;;9.06;55.14;101852.84;5071970;28;20021;-92
2022/03/24 05:04:33;;;;;;;14.52;10.95;;;;;;;9.17;54.76;101854.19;5073054;28;20024;-91
2022/03/24 05:06:58;;;;;;;15.10;10.75;;;;;;;9.19;55.12;101862.84;5072816;28;20031;-95
2022/03/24 05:09:24;;;;;;;14.30;11.18;;;;;;;9.09;54.82;101841.38;5074087;28;20031;-92
2022/03/24 05:11:49;;;;;;;15.48;11.13;;;;;;;9.09;55.11;101855.34;5073215;28;20036;-93
2022/03/24 05:14:15;;;;;;;13.93;10.75;;;;;;;9.09;55.19;101860.56;5071642;28;20029;-92
2022/03/24 05:16:40;;;;;;;15.15;11.48;;;;;;;9.04;55.12;101865.13;5073419;28;20127;-93
2022/03/24 05:19:05;;;;;;;15.88;11.45;;;;;;;9.02;55.21;101864.31;5072350;28;20029;-92
2022/03/24 05:21:32;;;;;;;15.32;12.02;;;;;;;9.03;55.02;101862.59;5071404;28;20028;-92
2022/03/24 05:23:59;;;;;;;17.67;11.75;;;;;;;8.97;55.34;101862.81;5072481;28;20034;-86
2022/03/24 05:26:25;;;;;;;18.38;11.75;;;;;;;8.90;54.44;101852.56;5071519;28;20074;-87
2022/03/24 05:28:51;;;;;;;17.85;11.70;;;;;;;8.99;55.07;101866.25;5070942;28;20036;-90
2022/03/24 05:31:17;;;;;;;16.42;11.88;;;;;;;8.98;55.18;101862.75;5071744;28;20066;-87
2022/03/24 05:33:43;;;;;;;21.92;12.85;;;;;;;8.95;54.88;101854.16;5072322;28;20029;-89
2022/03/24 05:36:09;;;;;;;16.80;13.15;;;;;;;9.01;54.85;101867.03;5072094;28;20092;-88
2022/03/24 05:38:34;;;;;;;19.42;12.77;;;;;;;9.08;54.59;101869.38;5072460;28;20362;-90
2022/03/24 05:41:01;;;;;;;19.98;12.70;;;;;;;9.07;54.28;101870.25;5072072;28;20378;-91
2022/03/24 05:43:26;;;;;;;17.92;12.40;;;;;;;9.02;54.58;101863.50;5072358;28;20032;-91
2022/03/24 05:45:52;;;;;;;18.75;13.40;;;;;;;8.86;54.43;101871.06;5070272;28;20032;-90
2022/03/24 05:48:17;;;;;;;17.90;12.30;;;;;;;9.00;54.65;101858.28;5072299;28;20111;-92
2022/03/24 05:50:44;;;;;;;19.65;13.82;;;;;;;9.11;53.93;101876.25;5071596;28;20138;-93
2022/03/24 05:53:09;;;;;;;17.20;12.48;;;;;;;9.09;54.59;101865.81;5072804;28;20054;-93
2022/03/24 05:55:37;;;;;;;18.85;13.18;;;;;;;9.04;55.19;101870.38;5072242;28;20020;-93
2022/03/24 05:58:04;;;;;;;20.95;12.60;;;;;;;8.96;54.71;101877.66;5072250;28;20024;-93
2022/03/24 06:00:30;;;;;;;21.23;14.48;;;;;;;9.06;54.97;101870.31;5072282;28;20466;-92
2022/03/24 06:02:55;;;;;;;21.45;13.40;;;;;;;9.11;54.50;101877.09;5070241;28;20024;-92
2022/03/24 06:05:23;;;;;;;22.05;12.70;;;;;;;9.16;54.23;101878.69;5072602;28;20111;-92
2022/03/24 06:07:49;;;;;;;16.77;11.90;;;;;;;9.16;53.70;101878.69;5072480;28;20024;-92
2022/03/24 06:10:14;;;;;;;17.13;12.13;;;;;;;8.99;54.84;101872.31;5072214;28;20024;-93
2022/03/24 06:12:40;;;;;;;20.02;12.90;;;;;;;9.01;54.57;101880.13;5072603;28;20043;-92
2022/03/24 06:15:06;;;;;;;21.30;12.75;;;;;;;8.80;55.06;101887.00;5072039;28;20025;-93
2022/03/24 06:17:32;;;;;;;21.55;13.35;;;;;;;8.68;55.07;101870.00;5071711;28;20032;-93
2022/03/24 06:19:58;;;;;;;18.20;13.63;;;;;;;8.67;56.08;101870.91;5070335;28;20066;-94
2022/03/24 06:22:23;;;;;;;17.73;13.13;;;;;;;8.73;55.56;101882.00;5070829;28;20025;-92
2022/03/24 06:24:49;;;;;;;18.45;12.65;;;;;;;8.81;55.87;101880.88;5074200;28;20069;-93
2022/03/24 06:27:17;;;;;;;19.55;13.13;;;;;;;8.88;56.33;101879.72;5077774;28;20123;-94
2022/03/24 06:29:43;;;;;;;20.30;12.82;;;;;;;8.93;56.39;101883.03;5077701;28;20024;-93
2022/03/24 06:32:08;;;;;;;19.02;13.00;;;;;;;8.99;55.63;101884.56;5072496;28;20035;-94
2022/03/24 06:34:34;;;;;;;17.90;13.35;;;;;;;9.02;55.74;101887.06;5070581;28;20381;-89
2022/03/24 06:36:59;;;;;;;19.50;13.55;;;;;;;9.06;55.53;101896.50;5071472;28;20091;-87
2022/03/24 06:39:24;;;;;;;20.27;13.70;;;;;;;9.10;56.00;101895.47;5074466;28;20047;-87
2022/03/24 06:41:50;;;;;;;21.60;14.32;;;;;;;9.15;55.74;101897.94;5075542;28;20551;-89
2022/03/24 06:44:16;;;;;;;22.77;13.65;;;;;;;9.21;55.34;101897.72;5075446;28;20391;-87
2022/03/24 06:46:41;;;;;;;19.30;13.20;;;;;;;9.26;55.06;101901.88;5075994;28;20532;-86
2022/03/24 06:49:07;;;;;;;20.10;13.85;;;;;;;9.38;54.30;101900.53;5087524;28;20027;-90
2022/03/24 06:51:34;;;;;;;19.85;13.13;;;;;;;9.52;55.33;101898.22;5093776;28;20039;-90
2022/03/24 06:54:01;;;;;;;21.65;14.02;;;;;;;9.57;55.18;101897.19;5078082;28;20024;-90
2022/03/24 06:56:26;;;;;;;18.60;13.45;;;;;;;9.59;54.92;101904.06;5075204;28;20033;-91
2022/03/24 06:58:51;;;;;;;19.17;13.80;;;;;;;9.92;53.84;101901.00;5075150;28;20029;-91
2022/03/24 07:01:18;;;;;;;24.27;15.52;;;;;;;9.99;53.81;101905.09;5074831;28;20048;-90
2022/03/24 07:03:43;;;;;;;18.98;12.75;;;;;;;9.99;53.52;101897.22;5074802;28;20021;-90
2022/03/24 07:06:09;;;;;;;20.77;13.23;;;;;;;10.04;54.10;101894.38;5075080;28;20075;-90
2022/03/24 07:08:35;;;;;;;22.38;14.20;;;;;;;10.16;53.28;101899.13;5075278;28;20089;-90
2022/03/24 07:11:02;;;;;;;19.02;13.45;;;;;;;10.28;53.38;101903.84;5074753;28;20050;-90
2022/03/24 07:13:27;;;;;;;16.70;12.63;;;;;;;10.49;53.66;101902.09;5074841;28;20035;-90
2022/03/24 07:15:53;;;;;;;20.73;13.70;;;;;;;10.55;53.59;101895.72;5074805;28;20386;-90
2022/03/24 07:18:18;;;;;;;25.42;15.18;;;;;;;10.69;53.32;101897.75;5074810;28;20108;-90
2022/03/24 07:20:43;;;;;;;20.58;13.00;;;;;;;11.09;52.36;101898.56;5075101;28;20104;-91
2022/03/24 07:23:09;;;;;;;20.35;13.63;;;;;;;11.32;52.38;101894.84;5075124;28;20418;-90
2022/03/24 07:25:39;;;;;;;19.67;13.10;;;;;;;11.31;52.76;101896.63;5074563;28;20105;-90
2022/03/24 07:28:05;;;;;;;19.35;13.25;;;;;;;11.47;52.83;101902.03;5074835;28;20739;-90
2022/03/24 07:30:31;;;;;;;19.35;13.10;;;;;;;11.67;53.00;101902.81;5074361;28;20463;-90
2022/03/24 07:32:59;;;;;;;20.95;14.00;;;;;;;12.40;52.17;101897.44;5072909;28;20047;-90
2022/03/24 07:35:25;;;;;;;24.55;14.68;;;;;;;13.03;50.75;101902.91;5073118;28;20062;-91
2022/03/24 07:37:51;;;;;;;19.77;12.38;;;;;;;13.65;49.55;101904.78;5074689;28;20055;-90
2022/03/24 07:40:18;;;;;;;18.63;13.57;;;;;;;14.12;48.18;101908.22;5074422;28;20028;-90
2022/03/24 07:42:44;;;;;;;21.08;13.52;;;;;;;14.60;47.47;101901.00;5071558;28;20025;-92
2022/03/24 07:45:11;;;;;;;19.77;13.70;;;;;;;14.93;46.07;101906.00;5056638;28;20028;-90
2022/03/24 07:48:25;;;;;;;18.25;12.82;;;;;;;15.17;45.79;101908.03;5067659;28;20032;-86
2022/03/24 07:50:52;;;;;;;17.48;12.32;;;;;;;15.68;45.09;101913.56;5067024;28;20132;-86
2022/03/24 07:53:42;;;;;;;16.10;11.85;;;;;;;15.82;45.13;101921.47;5069214;28;20066;-87
2022/03/24 07:56:08;;;;;;;21.65;12.23;;;;;;;16.07;44.70;101909.22;5069287;28;20063;-86
2022/03/24 07:58:33;;;;;;;15.82;12.55;;;;;;;16.54;44.39;101917.56;5068482;28;20056;-87
2022/03/24 08:00:59;;;;;;;16.75;12.38;;;;;;;17.17;43.20;101921.13;5068652;28;20122;-86
2022/03/24 08:03:26;;;;;;;15.90;10.60;;;;;;;17.86;41.18;101917.91;5068986;28;20028;-87
2022/03/24 08:05:51;;;;;;;16.48;11.07;;;;;;;18.53;38.92;101925.22;5068839;28;20107;-86
2022/03/24 08:08:17;;;;;;;16.77;11.30;;;;;;;19.27;38.00;101925.56;5066560;28;20073;-87
2022/03/24 08:10:44;;;;;;;18.27;11.23;;;;;;;20.07;36.97;101920.84;5063561;28;20151;-87
2022/03/24 08:13:12;;;;;;;17.83;12.18;;;;;;;20.92;35.40;101917.13;5066272;28;20024;-87
2022/03/24 08:15:38;;;;;;;16.40;11.52;;;;;;;21.52;33.84;101922.47;5068566;28;20020;-87
2022/03/24 08:18:04;;;;;;;16.55;11.90;;;;;;;22.10;32.76;101917.13;5059374;28;20505;-88
2022/03/24 08:20:30;;;;;;;17.85;10.65;;;;;;;22.65;32.08;101926.31;5049666;28;20024;-88
2022/03/24 08:22:56;;;;;;;14.48;10.30;;;;;;;23.06;31.18;101921.50;5053460;28;20364;-87
2022/03/24 08:25:22;;;;;;;15.18;11.07;;;;;;;23.58;30.29;101924.44;5066602;28;20035;-88
2022/03/24 08:27:47;;;;;;;15.77;10.75;;;;;;;24.05;29.76;101929.56;5060231;28;20028;-87
2022/03/24 08:30:13;;;;;;;14.45;10.95;;;;;;;24.47;28.14;101923.47;5058523;28;20090;-88
2022/03/24 08:32:39;;;;;;;15.18;10.13;;;;;;;24.80;27.76;101922.81;5056502;28;20490;-88
2022/03/24 08:35:06;;;;;;;14.02;10.52;;;;;;;25.21;27.33;101926.50;5053368;28;20079;-88
2022/03/24 08:37:31;;;;;;;14.90;10.43;;;;;;;25.42;26.94;101933.31;5051073;28;20029;-88
2022/03/24 08:39:56;;;;;;;18.10;11.30;;;;;;;25.02;27.18;101924.94;5067307;28;20086;-88
2022/03/24 08:42:22;;;;;;;13.80;9.98;;;;;;;25.51;27.19;101924.25;5065308;28;20119;-89
2022/03/24 08:44:47;;;;;;;16.58;11.60;;;;;;;25.38;27.12;101929.28;5068747;28;20131;-88
2022/03/24 08:47:13;;;;;;;18.35;11.68;;;;;;;25.80;27.72;101925.63;5069278;28;20032;-89
2022/03/24 08:49:38;;;;;;;15.80;10.82;;;;;;;25.89;27.17;101922.75;5069194;28;20661;-88
2022/03/24 08:52:04;;;;;;;15.25;9.93;;;;;;;26.30;27.12;101932.66;5069381;28;20103;-89
2022/03/24 08:54:30;;;;;;;12.93;9.88;;;;;;;26.74;26.61;101929.56;5070350;28;20060;-89
2022/03/24 08:56:55;;;;;;;13.90;10.40;;;;;;;26.50;26.36;101923.22;5068852;28;20028;-89
2022/03/24 08:59:20;;;;;;;17.77;11.55;;;;;;;26.30;26.55;101927.28;5067324;28;20402;-89
2022/03/24 09:01:46;;;;;;;16.88;10.40;;;;;;;26.49;26.63;101932.28;5091749;28;20040;-89
2022/03/24 09:04:11;;;;;;;22.42;11.07;;;;;;;26.72;26.39;101928.91;5092135;28;20028;-89
2022/03/24 09:06:37;;;;;;;16.98;11.73;;;;;;;26.65;26.17;101927.91;5090245;28;20032;-89
2022/03/24 09:09:04;;;;;;;22.67;12.23;;;;;;;26.70;25.55;101934.47;5071762;28;20067;-89
2022/03/24 09:11:29;;;;;;;19.98;12.60;;;;;;;27.08;25.22;101925.72;5050318;28;20033;-89
2022/03/24 09:13:55;;;;;;;16.50;11.20;;;;;;;27.47;24.84;101935.63;5059196;28;20039;-89
2022/03/24 09:16:21;;;;;;;18.20;12.90;;;;;;;27.86;24.93;101934.66;5067677;28;20055;-89
2022/03/24 09:18:47;;;;;;;21.73;11.43;;;;;;;27.68;24.39;101938.50;5064435;28;20494;-89
2022/03/24 09:21:13;;;;;;;20.33;12.05;;;;;;;28.05;24.46;101933.34;5048442;28;20120;-88
2022/03/24 09:23:39;;;;;;;24.33;12.55;;;;;;;28.21;23.84;101935.03;5050525;28;20029;-88
2022/03/24 09:26:04;;;;;;;21.15;12.95;;;;;;;27.96;23.73;101929.84;5068326;28;20035;-88
2022/03/24 09:28:29;;;;;;;18.15;12.20;;;;;;;28.22;24.07;101939.41;5054355;28;20479;-87
2022/03/24 09:30:56;;;;;;;21.10;12.13;;;;;;;28.62;24.03;101931.94;5066915;28;20062;-87
2022/03/24 09:33:22;;;;;;;14.13;10.73;;;;;;;29.12;23.89;101933.00;5059009;28;20036;-88
2022/03/24 09:35:49;;;;;;;16.98;11.98;;;;;;;29.27;23.64;101931.13;5060457;28;20024;-88
2022/03/24 09:38:14;;;;;;;17.80;12.93;;;;;;;29.30;22.37;101937.16;5065041;28;20434;-88
2022/03/24 09:40:40;;;;;;;20.45;12.88;;;;;;;29.50;22.56;101935.50;5060500;28;20028;-87
2022/03/24 09:43:06;;;;;;;27.05;13.52;;;;;;;29.48;22.86;101934.84;5058345;28;20106;-87
2022/03/24 09:45:32;;;;;;;18.13;13.30;;;;;;;29.81;22.85;101940.63;5065767;28;20078;-87
2022/03/24 09:47:58;;;;;;;21.15;13.43;;;;;;;29.78;22.65;101937.47;5067821;28;20032;-87
2022/03/24 09:50:27;;;;;;;23.50;13.52;;;;;;;29.65;22.53;101936.28;5067598;28;20035;-88
2022/03/24 09:52:52;;;;;;;17.98;13.23;;;;;;;29.92;22.12;101939.28;5066325;28;20028;-88
2022/03/24 09:55:19;;;;;;;23.65;12.93;;;;;;;29.82;21.78;101941.47;5065711;28;20560;-87
2022/03/24 09:57:46;;;;;;;18.05;13.02;;;;;;;30.11;22.70;101935.03;5062463;28;20540;-88
2022/03/24 10:00:12;;;;;;;21.30;15.05;;;;;;;30.22;22.11;101948.03;5064693;28;20111;-89
2022/03/24 10:02:38;;;;;;;23.67;14.95;;;;;;;30.08;22.00;101940.03;5067577;28;20162;-88
2022/03/24 10:05:06;;;;;;;22.42;13.73;;;;;;;30.17;22.20;101933.41;5067058;28;20599;-89
2022/03/24 10:07:51;;;;;;;18.02;12.35;;;;;;;30.39;22.17;101935.06;5067745;28;20167;-88
2022/03/24 10:10:24;;;;;;;23.80;14.07;;;;;;;30.64;21.75;101935.41;5059205;28;20044;-89
2022/03/24 10:12:49;;;;;;;18.60;14.10;;;;;;;30.71;21.41;101934.59;5049354;28;20025;-88
2022/03/24 10:15:16;;;;;;;25.35;14.55;;;;;;;30.97;21.72;101929.31;5066052;28;20089;-88
2022/03/24 10:17:53;;;;;;;39.58;16.05;;;;;;;30.85;21.38;101939.06;5067667;28;20120;-88
2022/03/24 10:20:19;;;;;;;20.08;14.50;;;;;;;30.55;21.43;101935.75;5067036;28;20065;-88
2022/03/24 10:22:59;;;;;;;19.20;13.70;;;;;;;31.25;21.14;101936.50;5068567;28;20041;-87
2022/03/24 10:25:33;;;;;;;21.92;14.80;;;;;;;31.44;21.37;101929.47;5066714;28;20762;-87
2022/03/24 10:28:07;;;;;;;22.00;14.32;;;;;;;31.14;21.18;101946.09;5066680;28;20032;-87
2022/03/24 10:30:55;;;;;;;23.40;14.88;;;;;;;31.46;20.71;101932.84;5064103;28;20040;-87
2022/03/24 10:33:38;;;;;;;19.23;14.00;;;;;;;31.53;20.44;101935.56;5067639;28;20033;-87
2022/03/24 10:36:09;;;;;;;23.80;15.40;;;;;;;31.21;21.35;101944.22;5047276;28;20029;-87
2022/03/24 10:38:36;;;;;;;;;;;;;;;31.79;20.47;101926.59;5056938;28;20052;-87
2022/03/24 10:41:14;;;;;;;22.63;14.77;;;;;;;31.40;20.86;101928.22;5065900;28;19915;-87
2022/03/24 10:43:39;;;;;;;18.73;13.93;;;;;;;31.74;20.50;101931.81;5056978;28;20376;-87
2022/03/24 10:46:19;;;;;;;22.73;14.73;;;;;;;32.26;20.26;101930.13;5066426;28;20039;-87
2022/03/24 10:48:49;;;;;;;22.33;14.18;;;;;;;31.95;20.83;101931.63;5067079;28;20477;-87
2022/03/24 10:51:28;;;;;;;21.00;15.38;;;;;;;32.07;20.58;101928.28;5061354;28;20068;-89
2022/03/24 10:54:10;;;;;;;20.30;14.73;;;;;;;31.73;20.76;101930.13;5065059;28;20402;-88
2022/03/24 10:56:39;;;;;;;15.15;11.57;;;;;;;31.99;21.86;101930.16;5050868;28;20398;-89
2022/03/24 10:59:05;;;;;;;20.10;13.88;;;;;;;32.01;21.06;101936.25;5066596;28;20477;-89
2022/03/24 11:01:32;;;;;;;22.55;14.18;;;;;;;32.03;21.87;101932.47;5067113;28;20047;-89
2022/03/24 11:03:57;;;;;;;20.23;12.80;;;;;;;31.76;21.96;101935.16;5065216;28;20513;-89
2022/03/24 11:06:23;;;;;;;15.73;11.68;;;;;;;32.12;21.23;101932.03;5066772;28;20100;-88
2022/03/24 11:08:59;;;;;;;17.23;12.98;;;;;;;32.13;22.19;101938.28;5067236;28;20028;-88
2022/03/24 11:11:25;;;;;;;25.40;12.15;;;;;;;31.97;22.29;101932.25;5066418;28;20032;-89
2022/03/24 11:13:55;;;;;;;14.63;11.38;;;;;;;32.31;21.98;101933.06;5062003;28;20029;-88